sensor_id;sensor_type;location;lat;lon;timestamp;pressure;altitude;pressure_sealevel;temperature;humidity
39363;BME280;25088;43.238;23.110;2023-04-06T00:01:00;96211.50;;;1.20;100.00
39363;BME280;25088;43.238;23.110;2023-04-06T00:03:26;96215.63;;;1.23;100.00
39363;BME280;25088;43.238;23.110;2023-04-06T00:05:52;96185.22;;;1.22;100.00
39363;BME280;25088;43.238;23.110;2023-04-06T00:08:17;96209.88;;;1.46;100.00
39363;BME280;25088;43.238;23.110;2023-04-06T00:10:43;96198.88;;;1.54;100.00
39363;BME280;25088;43.238;23.110;2023-04-06T00:13:08;96195.38;;;1.53;100.00
39363;BME280;25088;43.238;23.110;2023-04-06T00:15:34;96186.09;;;1.49;100.00
39363;BME280;25088;43.238;23.110;2023-04-06T00:18:00;96185.66;;;1.52;100.00
39363;BME280;25088;43.238;23.110;2023-04-06T00:20:26;96200.13;;;1.58;100.00
39363;BME280;25088;43.238;23.110;2023-04-06T00:22:51;96185.66;;;1.52;100.00
39363;BME280;25088;43.238;23.110;2023-04-06T00:25:17;96192.91;;;1.65;100.00
39363;BME280;25088;43.238;23.110;2023-04-06T00:27:42;96193.31;;;1.62;100.00
39363;BME280;25088;43.238;23.110;2023-04-06T00:30:08;96185.66;;;1.66;100.00
39363;BME280;25088;43.238;23.110;2023-04-06T00:32:34;96184.00;;;1.65;100.00
39363;BME280;25088;43.238;23.110;2023-04-06T00:35:02;96183.16;;;1.58;100.00
39363;BME280;25088;43.238;23.110;2023-04-06T00:37:28;96183.38;;;1.63;100.00
39363;BME280;25088;43.238;23.110;2023-04-06T00:39:53;96172.81;;;1.61;100.00
39363;BME280;25088;43.238;23.110;2023-04-06T00:42:21;96169.28;;;1.67;100.00
39363;BME280;25088;43.238;23.110;2023-04-06T00:44:56;96172.00;;;1.61;100.00
39363;BME280;25088;43.238;23.110;2023-04-06T00:47:22;96177.16;;;1.69;100.00
39363;BME280;25088;43.238;23.110;2023-04-06T00:49:48;96187.91;;;1.69;100.00
39363;BME280;25088;43.238;23.110;2023-04-06T00:52:14;96176.75;;;1.72;100.00
39363;BME280;25088;43.238;23.110;2023-04-06T00:54:40;96186.47;;;1.73;100.00
39363;BME280;25088;43.238;23.110;2023-04-06T00:57:06;96172.63;;;1.69;100.00
39363;BME280;25088;43.238;23.110;2023-04-06T00:59:31;96165.97;;;1.72;100.00
39363;BME280;25088;43.238;23.110;2023-04-06T01:01:57;96163.88;;;1.74;100.00
39363;BME280;25088;43.238;23.110;2023-04-06T01:04:23;96178.97;;;1.88;100.00
39363;BME280;25088;43.238;23.110;2023-04-06T01:06:49;96178.97;;;1.88;100.00
39363;BME280;25088;43.238;23.110;2023-04-06T01:09:15;96166.78;;;1.86;100.00
39363;BME280;25088;43.238;23.110;2023-04-06T01:11:41;96178.16;;;2.01;100.00
39363;BME280;25088;43.238;23.110;2023-04-06T01:14:06;96175.44;;;2.07;100.00
39363;BME280;25088;43.238;23.110;2023-04-06T01:16:33;96155.78;;;1.94;100.00
39363;BME280;25088;43.238;23.110;2023-04-06T01:18:58;96167.97;;;2.03;100.00
39363;BME280;25088;43.238;23.110;2023-04-06T01:21:24;96174.59;;;2.07;100.00
39363;BME280;25088;43.238;23.110;2023-04-06T01:23:50;96171.88;;;2.14;100.00
39363;BME280;25088;43.238;23.110;2023-04-06T01:26:16;96166.06;;;2.23;100.00
39363;BME280;25088;43.238;23.110;2023-04-06T01:28:41;96166.50;;;2.20;100.00
39363;BME280;25088;43.238;23.110;2023-04-06T01:31:08;96170.22;;;2.19;100.00
39363;BME280;25088;43.238;23.110;2023-04-06T01:33:33;96160.69;;;2.17;100.00
39363;BME280;25088;43.238;23.110;2023-04-06T01:35:59;96163.38;;;2.17;100.00
39363;BME280;25088;43.238;23.110;2023-04-06T01:38:25;96160.09;;;2.15;100.00
39363;BME280;25088;43.238;23.110;2023-04-06T01:40:52;96159.25;;;2.21;100.00
39363;BME280;25088;43.238;23.110;2023-04-06T01:43:17;96155.31;;;2.17;100.00
39363;BME280;25088;43.238;23.110;2023-04-06T01:45:42;96162.16;;;2.19;100.00
39363;BME280;25088;43.238;23.110;2023-04-06T01:48:08;96161.09;;;2.20;100.00
39363;BME280;25088;43.238;23.110;2023-04-06T01:50:33;96153.22;;;2.19;100.00
39363;BME280;25088;43.238;23.110;2023-04-06T01:52:59;96153.44;;;2.17;100.00
39363;BME280;25088;43.238;23.110;2023-04-06T01:55:25;96151.75;;;2.23;100.00
39363;BME280;25088;43.238;23.110;2023-04-06T01:57:51;96149.25;;;2.28;100.00
39363;BME280;25088;43.238;23.110;2023-04-06T02:00:16;96129.63;;;2.21;100.00
39363;BME280;25088;43.238;23.110;2023-04-06T02:02:42;96143.66;;;2.36;100.00
39363;BME280;25088;43.238;23.110;2023-04-06T02:05:08;96150.06;;;2.35;100.00
39363;BME280;25088;43.238;23.110;2023-04-06T02:07:33;96145.94;;;2.32;100.00
39363;BME280;25088;43.238;23.110;2023-04-06T02:09:59;96145.72;;;2.34;100.00
39363;BME280;25088;43.238;23.110;2023-04-06T02:12:25;96140.94;;;2.36;100.00
39363;BME280;25088;43.238;23.110;2023-04-06T02:14:50;96136.56;;;2.42;100.00
39363;BME280;25088;43.238;23.110;2023-04-06T02:17:16;96134.69;;;2.42;100.00
39363;BME280;25088;43.238;23.110;2023-04-06T02:19:41;96135.09;;;2.46;100.00
39363;BME280;25088;43.238;23.110;2023-04-06T02:22:07;96114.66;;;2.31;100.00
39363;BME280;25088;43.238;23.110;2023-04-06T02:24:32;96136.97;;;2.45;100.00
39363;BME280;25088;43.238;23.110;2023-04-06T02:26:58;96130.59;;;2.40;100.00
39363;BME280;25088;43.238;23.110;2023-04-06T02:29:23;96135.94;;;2.46;100.00
39363;BME280;25088;43.238;23.110;2023-04-06T02:31:48;96143.41;;;2.44;100.00
39363;BME280;25088;43.238;23.110;2023-04-06T02:34:14;96133.47;;;2.45;100.00
39363;BME280;25088;43.238;23.110;2023-04-06T02:36:45;96129.50;;;2.47;100.00
39363;BME280;25088;43.238;23.110;2023-04-06T02:39:11;96137.97;;;2.51;100.00
39363;BME280;25088;43.238;23.110;2023-04-06T02:41:38;96139.63;;;2.52;100.00
39363;BME280;25088;43.238;23.110;2023-04-06T02:44:03;96138.16;;;2.56;100.00
39363;BME280;25088;43.238;23.110;2023-04-06T02:46:29;96142.28;;;2.65;100.00
39363;BME280;25088;43.238;23.110;2023-04-06T02:48:54;96131.66;;;2.70;100.00
39363;BME280;25088;43.238;23.110;2023-04-06T02:51:20;96139.94;;;2.75;100.00
39363;BME280;25088;43.238;23.110;2023-04-06T02:53:46;96112.16;;;2.68;100.00
39363;BME280;25088;43.238;23.110;2023-04-06T02:56:11;96132.03;;;2.80;100.00
39363;BME280;25088;43.238;23.110;2023-04-06T02:58:37;96140.50;;;2.84;100.00
39363;BME280;25088;43.238;23.110;2023-04-06T03:01:03;96138.19;;;2.88;100.00
39363;BME280;25088;43.238;23.110;2023-04-06T03:03:28;96138.19;;;2.88;100.00
39363;BME280;25088;43.238;23.110;2023-04-06T03:05:54;96138.81;;;2.90;100.00
39363;BME280;25088;43.238;23.110;2023-04-06T03:08:21;96141.69;;;2.95;100.00
39363;BME280;25088;43.238;23.110;2023-04-06T03:10:46;96128.44;;;2.87;100.00
39363;BME280;25088;43.238;23.110;2023-04-06T03:13:12;96136.94;;;2.90;100.00
39363;BME280;25088;43.238;23.110;2023-04-06T03:15:37;96142.50;;;2.95;100.00
39363;BME280;25088;43.238;23.110;2023-04-06T03:18:03;96144.81;;;2.92;100.00
39363;BME280;25088;43.238;23.110;2023-04-06T03:20:28;96117.91;;;2.85;100.00
39363;BME280;25088;43.238;23.110;2023-04-06T03:22:54;96128.22;;;2.88;100.00
39363;BME280;25088;43.238;23.110;2023-04-06T03:25:20;96125.97;;;2.85;100.00
39363;BME280;25088;43.238;23.110;2023-04-06T03:27:45;96130.19;;;2.74;100.00
39363;BME280;25088;43.238;23.110;2023-04-06T03:30:11;96132.84;;;2.81;100.00
39363;BME280;25088;43.238;23.110;2023-04-06T03:32:37;96131.63;;;2.77;100.00
39363;BME280;25088;43.238;23.110;2023-04-06T03:35:02;96132.66;;;2.76;100.00
39363;BME280;25088;43.238;23.110;2023-04-06T03:37:28;96142.22;;;2.72;100.00
39363;BME280;25088;43.238;23.110;2023-04-06T03:39:53;96136.81;;;2.72;100.00
39363;BME280;25088;43.238;23.110;2023-04-06T03:42:19;96131.22;;;2.73;100.00
39363;BME280;25088;43.238;23.110;2023-04-06T03:44:44;96129.16;;;2.75;100.00
39363;BME280;25088;43.238;23.110;2023-04-06T03:47:10;96126.06;;;2.72;100.00
39363;BME280;25088;43.238;23.110;2023-04-06T03:49:35;96133.09;;;2.73;100.00
39363;BME280;25088;43.238;23.110;2023-04-06T03:52:01;96132.50;;;2.71;100.00
39363;BME280;25088;43.238;23.110;2023-04-06T03:54:26;96131.44;;;2.72;100.00
39363;BME280;25088;43.238;23.110;2023-04-06T03:56:52;96132.88;;;2.74;100.00
39363;BME280;25088;43.238;23.110;2023-04-06T03:59:17;96131.22;;;2.73;100.00
39363;BME280;25088;43.238;23.110;2023-04-06T04:01:43;96134.34;;;2.70;100.00
39363;BME280;25088;43.238;23.110;2023-04-06T04:04:08;96130.84;;;2.70;100.00
39363;BME280;25088;43.238;23.110;2023-04-06T04:06:33;96141.41;;;2.71;100.00
39363;BME280;25088;43.238;23.110;2023-04-06T04:09:01;96115.97;;;2.61;100.00
39363;BME280;25088;43.238;23.110;2023-04-06T04:11:27;96145.28;;;2.82;100.00
39363;BME280;25088;43.238;23.110;2023-04-06T04:13:53;96134.28;;;2.83;100.00
39363;BME280;25088;43.238;23.110;2023-04-06T04:16:18;96143.56;;;2.94;100.00
39363;BME280;25088;43.238;23.110;2023-04-06T04:18:44;96141.19;;;3.04;100.00
39363;BME280;25088;43.238;23.110;2023-04-06T04:21:10;96144.28;;;3.08;100.00
39363;BME280;25088;43.238;23.110;2023-04-06T04:23:36;96143.06;;;3.04;100.00
39363;BME280;25088;43.238;23.110;2023-04-06T04:26:01;96147.66;;;3.03;100.00
39363;BME280;25088;43.238;23.110;2023-04-06T04:28:27;96146.78;;;3.09;100.00
39363;BME280;25088;43.238;23.110;2023-04-06T04:30:52;96148.25;;;3.05;100.00
39363;BME280;25088;43.238;23.110;2023-04-06T04:33:18;96134.75;;;3.05;100.00
39363;BME280;25088;43.238;23.110;2023-04-06T04:35:43;96147.13;;;3.13;100.00
39363;BME280;25088;43.238;23.110;2023-04-06T04:38:09;96131.25;;;3.05;100.00
39363;BME280;25088;43.238;23.110;2023-04-06T04:40:34;96150.00;;;3.18;99.50
39363;BME280;25088;43.238;23.110;2023-04-06T04:43:00;96134.03;;;3.17;100.00
39363;BME280;25088;43.238;23.110;2023-04-06T04:45:25;96147.88;;;3.27;100.00
39363;BME280;25088;43.238;23.110;2023-04-06T04:47:51;96141.00;;;3.31;100.00
39363;BME280;25088;43.238;23.110;2023-04-06T04:50:16;96136.66;;;3.30;100.00
39363;BME280;25088;43.238;23.110;2023-04-06T04:52:42;96143.03;;;3.35;100.00
39363;BME280;25088;43.238;23.110;2023-04-06T04:55:07;96141.75;;;3.38;100.00
39363;BME280;25088;43.238;23.110;2023-04-06T04:57:33;96129.94;;;3.39;100.00
39363;BME280;25088;43.238;23.110;2023-04-06T04:59:58;96143.94;;;3.54;100.00
39363;BME280;25088;43.238;23.110;2023-04-06T05:02:24;96142.28;;;3.53;100.00
39363;BME280;25088;43.238;23.110;2023-04-06T05:04:49;96143.03;;;3.60;99.77
39363;BME280;25088;43.238;23.110;2023-04-06T05:07:15;96139.25;;;3.68;97.98
39363;BME280;25088;43.238;23.110;2023-04-06T05:09:43;96142.03;;;3.80;96.79
39363;BME280;25088;43.238;23.110;2023-04-06T05:12:09;96139.88;;;3.88;96.57
39363;BME280;25088;43.238;23.110;2023-04-06T05:14:35;96147.34;;;3.86;97.02
39363;BME280;25088;43.238;23.110;2023-04-06T05:17:01;96149.38;;;3.91;97.19
39363;BME280;25088;43.238;23.110;2023-04-06T05:19:26;96143.25;;;4.02;98.39
39363;BME280;25088;43.238;23.110;2023-04-06T05:21:52;96155.22;;;4.13;96.85
39363;BME280;25088;43.238;23.110;2023-04-06T05:24:17;96144.31;;;4.20;95.99
39363;BME280;25088;43.238;23.110;2023-04-06T05:26:43;96151.66;;;4.31;93.24
39363;BME280;25088;43.238;23.110;2023-04-06T05:29:09;96148.13;;;4.30;93.12
39363;BME280;25088;43.238;23.110;2023-04-06T05:31:35;96146.69;;;4.46;91.86
39363;BME280;25088;43.238;23.110;2023-04-06T05:34:00;96140.84;;;4.68;91.86
39363;BME280;25088;43.238;23.110;2023-04-06T05:36:26;96139.50;;;4.88;89.93
39363;BME280;25088;43.238;23.110;2023-04-06T05:38:51;96132.16;;;5.07;86.71
39363;BME280;25088;43.238;23.110;2023-04-06T05:41:18;96136.81;;;5.30;83.57
39363;BME280;25088;43.238;23.110;2023-04-06T05:43:44;96135.31;;;5.58;78.70
39363;BME280;25088;43.238;23.110;2023-04-06T05:46:10;96141.81;;;5.80;75.86
39363;BME280;25088;43.238;23.110;2023-04-06T05:48:35;96133.13;;;6.02;65.50
39363;BME280;25088;43.238;23.110;2023-04-06T05:51:01;96119.94;;;6.17;63.39
39363;BME280;25088;43.238;23.110;2023-04-06T05:53:27;96123.28;;;6.47;59.47
39363;BME280;25088;43.238;23.110;2023-04-06T05:55:54;96125.13;;;6.59;58.45
39363;BME280;25088;43.238;23.110;2023-04-06T05:58:19;96122.63;;;6.69;57.47
39363;BME280;25088;43.238;23.110;2023-04-06T06:00:45;96110.69;;;6.82;55.62
39363;BME280;25088;43.238;23.110;2023-04-06T06:03:12;96113.69;;;6.97;54.54
39363;BME280;25088;43.238;23.110;2023-04-06T06:05:37;96105.63;;;7.02;55.10
39363;BME280;25088;43.238;23.110;2023-04-06T06:08:03;96106.19;;;7.04;53.92
39363;BME280;25088;43.238;23.110;2023-04-06T06:10:28;96090.88;;;6.98;52.50
39363;BME280;25088;43.238;23.110;2023-04-06T06:12:54;96102.47;;;7.39;52.59
39363;BME280;25088;43.238;23.110;2023-04-06T06:15:20;96096.94;;;7.67;52.12
39363;BME280;25088;43.238;23.110;2023-04-06T06:17:46;96098.81;;;7.84;51.85
39363;BME280;25088;43.238;23.110;2023-04-06T06:20:11;96098.69;;;8.12;50.90
39363;BME280;25088;43.238;23.110;2023-04-06T06:22:37;96097.81;;;8.28;50.48
39363;BME280;25088;43.238;23.110;2023-04-06T06:25:03;96099.22;;;8.31;49.79
39363;BME280;25088;43.238;23.110;2023-04-06T06:27:28;96080.66;;;8.45;51.29
39363;BME280;25088;43.238;23.110;2023-04-06T06:29:54;96093.84;;;8.80;52.24
39363;BME280;25088;43.238;23.110;2023-04-06T06:32:20;96084.44;;;8.88;50.45
39363;BME280;25088;43.238;23.110;2023-04-06T06:34:45;96084.44;;;8.88;49.46
39363;BME280;25088;43.238;23.110;2023-04-06T06:37:11;96088.72;;;9.05;48.95
39363;BME280;25088;43.238;23.110;2023-04-06T06:39:36;96086.88;;;8.62;50.38
39363;BME280;25088;43.238;23.110;2023-04-06T06:42:01;96069.06;;;8.11;50.28
39363;BME280;25088;43.238;23.110;2023-04-06T06:44:27;96087.38;;;8.20;50.46
39363;BME280;25088;43.238;23.110;2023-04-06T06:46:53;96089.66;;;8.28;50.11
39363;BME280;25088;43.238;23.110;2023-04-06T06:49:19;96078.00;;;8.72;52.08
39363;BME280;25088;43.238;23.110;2023-04-06T06:51:45;96064.59;;;8.92;51.33
39363;BME280;25088;43.238;23.110;2023-04-06T06:54:12;96082.69;;;9.03;51.53
39363;BME280;25088;43.238;23.110;2023-04-06T06:56:38;96083.09;;;9.17;50.33
39363;BME280;25088;43.238;23.110;2023-04-06T06:59:05;96070.56;;;9.48;48.58
39363;BME280;25088;43.238;23.110;2023-04-06T07:01:32;96079.91;;;9.90;49.97
39363;BME280;25088;43.238;23.110;2023-04-06T07:03:59;96078.50;;;10.24;49.29
39363;BME280;25088;43.238;23.110;2023-04-06T07:06:24;96075.22;;;10.90;48.13
39363;BME280;25088;43.238;23.110;2023-04-06T07:08:50;96064.34;;;11.16;45.27
39363;BME280;25088;43.238;23.110;2023-04-06T07:11:16;96069.84;;;11.92;44.46
39363;BME280;25088;43.238;23.110;2023-04-06T07:13:42;96064.53;;;12.52;43.08
39363;BME280;25088;43.238;23.110;2023-04-06T07:16:08;96060.00;;;12.86;43.73
39363;BME280;25088;43.238;23.110;2023-04-06T07:18:34;96056.28;;;13.11;41.53
39363;BME280;25088;43.238;23.110;2023-04-06T07:20:59;96054.25;;;13.71;39.31
39363;BME280;25088;43.238;23.110;2023-04-06T07:23:25;96052.81;;;14.08;38.88
39363;BME280;25088;43.238;23.110;2023-04-06T07:25:50;96051.53;;;14.01;38.86
39363;BME280;25088;43.238;23.110;2023-04-06T07:28:17;96042.69;;;14.33;40.88
39363;BME280;25088;43.238;23.110;2023-04-06T07:30:43;96018.91;;;14.47;39.07
39363;BME280;25088;43.238;23.110;2023-04-06T07:33:08;96036.50;;;14.70;37.03
39363;BME280;25088;43.238;23.110;2023-04-06T07:35:34;96030.03;;;15.04;38.07
39363;BME280;25088;43.238;23.110;2023-04-06T07:38:00;96023.53;;;14.76;38.53
39363;BME280;25088;43.238;23.110;2023-04-06T07:40:25;96024.44;;;15.65;35.97
39363;BME280;25088;43.238;23.110;2023-04-06T07:42:52;96017.34;;;16.24;35.28
39363;BME280;25088;43.238;23.110;2023-04-06T07:45:17;96024.47;;;16.25;35.75
39363;BME280;25088;43.238;23.110;2023-04-06T07:47:43;96009.97;;;16.06;37.00
39363;BME280;25088;43.238;23.110;2023-04-06T07:50:09;96029.41;;;15.82;36.80
39363;BME280;25088;43.238;23.110;2023-04-06T07:52:35;96026.97;;;15.05;38.39
39363;BME280;25088;43.238;23.110;2023-04-06T07:55:00;96031.56;;;14.19;39.19
39363;BME280;25088;43.238;23.110;2023-04-06T07:57:26;96035.72;;;13.14;39.78
39363;BME280;25088;43.238;23.110;2023-04-06T07:59:51;96033.84;;;12.60;41.75
39363;BME280;25088;43.238;23.110;2023-04-06T08:02:17;96049.91;;;11.92;42.63
39363;BME280;25088;43.238;23.110;2023-04-06T08:04:43;96037.31;;;11.70;42.27
39363;BME280;25088;43.238;23.110;2023-04-06T08:07:09;96034.03;;;11.53;44.02
39363;BME280;25088;43.238;23.110;2023-04-06T08:09:34;96045.53;;;11.24;45.10
39363;BME280;25088;43.238;23.110;2023-04-06T08:12:00;96040.53;;;10.96;46.51
39363;BME280;25088;43.238;23.110;2023-04-06T08:14:25;96039.34;;;10.56;46.89
39363;BME280;25088;43.238;23.110;2023-04-06T08:16:51;96036.59;;;10.51;45.90
39363;BME280;25088;43.238;23.110;2023-04-06T08:19:16;96034.28;;;11.00;45.84
39363;BME280;25088;43.238;23.110;2023-04-06T08:21:44;96035.00;;;10.60;45.67
39363;BME280;25088;43.238;23.110;2023-04-06T08:24:10;96043.66;;;10.47;46.14
39363;BME280;25088;43.238;23.110;2023-04-06T08:26:35;96039.22;;;10.25;47.04
39363;BME280;25088;43.238;23.110;2023-04-06T08:29:01;96039.34;;;10.08;45.56
39363;BME280;25088;43.238;23.110;2023-04-06T08:31:26;96043.22;;;9.70;46.59
39363;BME280;25088;43.238;23.110;2023-04-06T08:33:52;96044.25;;;9.64;46.24
39363;BME280;25088;43.238;23.110;2023-04-06T08:36:18;96040.75;;;9.69;46.06
39363;BME280;25088;43.238;23.110;2023-04-06T08:38:48;96041.28;;;9.66;45.43
39363;BME280;25088;43.238;23.110;2023-04-06T08:41:15;96042.66;;;9.68;46.26
39363;BME280;25088;43.238;23.110;2023-04-06T08:44:00;96029.63;;;9.75;45.87
39363;BME280;25088;43.238;23.110;2023-04-06T08:46:26;96037.81;;;9.75;45.29
39363;BME280;25088;43.238;23.110;2023-04-06T08:48:56;96019.56;;;9.81;45.37
39363;BME280;25088;43.238;23.110;2023-04-06T08:51:25;96037.56;;;9.82;46.24
39363;BME280;25088;43.238;23.110;2023-04-06T08:53:58;96039.97;;;9.73;45.13
39363;BME280;25088;43.238;23.110;2023-04-06T08:56:25;96037.03;;;9.80;46.63
39363;BME280;25088;43.238;23.110;2023-04-06T08:58:55;96055.50;;;9.73;45.29
39363;BME280;25088;43.238;23.110;2023-04-06T09:01:22;96049.84;;;9.47;45.23
39363;BME280;25088;43.238;23.110;2023-04-06T09:03:49;96045.66;;;9.35;46.42
39363;BME280;25088;43.238;23.110;2023-04-06T09:06:16;96039.84;;;9.21;45.95
39363;BME280;25088;43.238;23.110;2023-04-06T09:08:42;96055.78;;;9.39;45.49
39363;BME280;25088;43.238;23.110;2023-04-06T09:11:08;96053.69;;;9.19;45.67
39363;BME280;25088;43.238;23.110;2023-04-06T09:13:48;96051.97;;;9.08;46.64
39363;BME280;25088;43.238;23.110;2023-04-06T09:16:14;96031.66;;;8.94;45.97
39363;BME280;25088;43.238;23.110;2023-04-06T09:18:39;96052.56;;;8.88;46.21
39363;BME280;25088;43.238;23.110;2023-04-06T09:21:06;96050.06;;;8.82;46.36
39363;BME280;25088;43.238;23.110;2023-04-06T09:23:32;96047.56;;;9.02;46.09
39363;BME280;25088;43.238;23.110;2023-04-06T09:26:10;96048.72;;;9.11;46.57
39363;BME280;25088;43.238;23.110;2023-04-06T09:28:53;96044.91;;;9.12;46.41
39363;BME280;25088;43.238;23.110;2023-04-06T09:31:29;96049.19;;;9.03;46.83
39363;BME280;25088;43.238;23.110;2023-04-06T09:33:56;96040.16;;;8.97;46.54
39363;BME280;25088;43.238;23.110;2023-04-06T09:36:37;96042.66;;;9.31;46.51
39363;BME280;25088;43.238;23.110;2023-04-06T09:39:07;96026.63;;;9.40;45.66
39363;BME280;25088;43.238;23.110;2023-04-06T09:41:34;96047.81;;;9.32;45.30
39363;BME280;25088;43.238;23.110;2023-04-06T09:44:12;96050.16;;;9.19;45.55
39363;BME280;25088;43.238;23.110;2023-04-06T09:46:40;96043.25;;;9.06;46.42
39363;BME280;25088;43.238;23.110;2023-04-06T09:49:07;96047.59;;;9.07;45.15
39363;BME280;25088;43.238;23.110;2023-04-06T09:54:02;96039.22;;;9.14;46.09
39363;BME280;25088;43.238;23.110;2023-04-06T09:57:32;96044.09;;;9.12;45.84
39363;BME280;25088;43.238;23.110;2023-04-06T10:07:57;96032.31;;;9.33;46.48
39363;BME280;25088;43.238;23.110;2023-04-06T10:10:25;96028.31;;;9.14;46.67
39363;BME280;25088;43.238;23.110;2023-04-06T10:12:51;96037.06;;;9.16;47.88
39363;BME280;25088;43.238;23.110;2023-04-06T10:15:16;96033.25;;;9.17;47.33
39363;BME280;25088;43.238;23.110;2023-04-06T10:17:43;96026.78;;;9.23;46.57
39363;BME280;25088;43.238;23.110;2023-04-06T10:20:21;96032.00;;;9.29;46.33
39363;BME280;25088;43.238;23.110;2023-04-06T10:22:55;96031.47;;;9.32;46.44
39363;BME280;25088;43.238;23.110;2023-04-06T10:25:30;96031.22;;;9.71;46.00
39363;BME280;25088;43.238;23.110;2023-04-06T10:28:15;95997.78;;;9.86;44.36
39363;BME280;25088;43.238;23.110;2023-04-06T10:30:44;96006.88;;;10.02;45.40
39363;BME280;25088;43.238;23.110;2023-04-06T10:33:17;96008.19;;;10.47;44.25
39363;BME280;25088;43.238;23.110;2023-04-06T10:35:43;95996.81;;;10.75;44.49
39363;BME280;25088;43.238;23.110;2023-04-06T10:38:09;96006.97;;;10.95;43.71
39363;BME280;25088;43.238;23.110;2023-04-06T10:40:38;96001.78;;;11.09;42.01
39363;BME280;25088;43.238;23.110;2023-04-06T10:43:32;96009.94;;;10.88;42.27
39363;BME280;25088;43.238;23.110;2023-04-06T10:46:00;96000.41;;;11.22;42.34
39363;BME280;25088;43.238;23.110;2023-04-06T10:48:43;96001.22;;;11.37;40.48
39363;BME280;25088;43.238;23.110;2023-04-06T10:51:11;96005.34;;;11.55;40.51
39363;BME280;25088;43.238;23.110;2023-04-06T10:53:37;95988.38;;;11.33;40.69
39363;BME280;25088;43.238;23.110;2023-04-06T10:56:04;95997.41;;;11.08;41.60
39363;BME280;25088;43.238;23.110;2023-04-06T10:58:34;95993.31;;;11.16;41.40
39363;BME280;25088;43.238;23.110;2023-04-06T11:01:00;95996.28;;;10.99;41.16
39363;BME280;25088;43.238;23.110;2023-04-06T11:03:25;95988.66;;;11.06;41.74
39363;BME280;25088;43.238;23.110;2023-04-06T11:05:52;95984.31;;;11.41;40.87
39363;BME280;25088;43.238;23.110;2023-04-06T11:08:28;95983.16;;;11.77;40.58
39363;BME280;25088;43.238;23.110;2023-04-06T11:11:11;95973.03;;;11.88;40.40
39363;BME280;25088;43.238;23.110;2023-04-06T11:13:43;95977.66;;;11.98;41.25
39363;BME280;25088;43.238;23.110;2023-04-06T11:16:17;95975.44;;;12.10;40.75
39363;BME280;25088;43.238;23.110;2023-04-06T11:19:03;95978.19;;;12.05;39.89
39363;BME280;25088;43.238;23.110;2023-04-06T11:24:25;95973.03;;;11.88;40.12
39363;BME280;25088;43.238;23.110;2023-04-06T11:26:57;95974.41;;;11.80;40.68
39363;BME280;25088;43.238;23.110;2023-04-06T11:29:27;95970.06;;;11.44;40.69
39363;BME280;25088;43.238;23.110;2023-04-06T11:32:04;95976.09;;;11.30;41.33
39363;BME280;25088;43.238;23.110;2023-04-06T11:34:32;95976.63;;;11.02;40.46
39363;BME280;25088;43.238;23.110;2023-04-06T11:37:01;95977.75;;;11.16;41.25
39363;BME280;25088;43.238;23.110;2023-04-06T11:39:28;95987.00;;;10.90;41.88
39363;BME280;25088;43.238;23.110;2023-04-06T11:41:57;95980.72;;;10.89;41.34
39363;BME280;25088;43.238;23.110;2023-04-06T11:44:32;95975.28;;;10.94;40.40
39363;BME280;25088;43.238;23.110;2023-04-06T11:46:58;95978.84;;;11.00;41.05
39363;BME280;25088;43.238;23.110;2023-04-06T11:49:28;95977.72;;;10.96;41.65
39363;BME280;25088;43.238;23.110;2023-04-06T11:51:54;95975.53;;;10.93;41.08
39363;BME280;25088;43.238;23.110;2023-04-06T11:54:32;95970.06;;;11.03;41.80
39363;BME280;25088;43.238;23.110;2023-04-06T11:56:58;95973.38;;;11.00;42.52
39363;BME280;25088;43.238;23.110;2023-04-06T11:59:25;95975.53;;;11.13;42.73
39363;BME280;25088;43.238;23.110;2023-04-06T12:01:52;95967.63;;;11.27;41.76
39363;BME280;25088;43.238;23.110;2023-04-06T12:04:19;95973.38;;;10.95;41.57
39363;BME280;25088;43.238;23.110;2023-04-06T12:06:44;95967.63;;;10.96;42.47
39363;BME280;25088;43.238;23.110;2023-04-06T12:09:10;95967.63;;;11.06;42.25
39363;BME280;25088;43.238;23.110;2023-04-06T12:11:35;95962.66;;;10.73;42.27
39363;BME280;25088;43.238;23.110;2023-04-06T12:14:01;95953.13;;;10.70;41.89
39363;BME280;25088;43.238;23.110;2023-04-06T12:16:30;95959.69;;;10.84;42.31
39363;BME280;25088;43.238;23.110;2023-04-06T12:18:55;95962.16;;;10.81;40.87
39363;BME280;25088;43.238;23.110;2023-04-06T12:21:21;95962.66;;;10.78;41.24
39363;BME280;25088;43.238;23.110;2023-04-06T12:23:47;95949.00;;;10.63;41.77
39363;BME280;25088;43.238;23.110;2023-04-06T12:26:12;95954.75;;;10.61;42.12
39363;BME280;25088;43.238;23.110;2023-04-06T12:28:38;95963.16;;;10.44;42.36
39363;BME280;25088;43.238;23.110;2023-04-06T12:31:06;95934.78;;;10.40;42.95
39363;BME280;25088;43.238;23.110;2023-04-06T12:33:31;95966.72;;;10.50;43.55
39363;BME280;25088;43.238;23.110;2023-04-06T12:35:57;95956.84;;;10.39;42.70
39363;BME280;25088;43.238;23.110;2023-04-06T12:38:22;95961.97;;;10.20;43.01
39363;BME280;25088;43.238;23.110;2023-04-06T12:40:48;95951.31;;;10.18;43.72
39363;BME280;25088;43.238;23.110;2023-04-06T12:43:14;95969.06;;;10.21;43.43
39363;BME280;25088;43.238;23.110;2023-04-06T12:45:39;95965.47;;;10.10;42.76
39363;BME280;25088;43.238;23.110;2023-04-06T12:48:06;95960.56;;;10.12;43.40
39363;BME280;25088;43.238;23.110;2023-04-06T12:50:32;95956.72;;;10.13;43.09
39363;BME280;25088;43.238;23.110;2023-04-06T12:52:57;95964.66;;;10.15;43.71
39363;BME280;25088;43.238;23.110;2023-04-06T12:55:22;95961.09;;;10.14;42.57
39363;BME280;25088;43.238;23.110;2023-04-06T12:57:48;95954.75;;;9.98;42.45
39363;BME280;25088;43.238;23.110;2023-04-06T13:00:14;95954.50;;;10.00;42.03
39363;BME280;25088;43.238;23.110;2023-04-06T13:02:40;95963.31;;;10.22;42.12
39363;BME280;25088;43.238;23.110;2023-04-06T13:05:05;95960.06;;;10.20;41.18